sensor_id;sensor_type;location;lat;lon;timestamp;P1;durP1;ratioP1;P2;durP2;ratioP2
55053;SDS011;40954;45.668;18.980;2023-08-24T00:00:53;7.07;;;6.32;;
55053;SDS011;40954;45.668;18.980;2023-08-24T00:03:18;6.97;;;6.32;;
55053;SDS011;40954;45.668;18.980;2023-08-24T00:05:47;8.15;;;7.32;;
55053;SDS011;40954;45.668;18.980;2023-08-24T00:08:12;9.15;;;6.38;;
55053;SDS011;40954;45.668;18.980;2023-08-24T00:10:38;8.20;;;6.25;;
55053;SDS011;40954;45.668;18.980;2023-08-24T00:13:04;8.65;;;7.75;;
55053;SDS011;40954;45.668;18.980;2023-08-24T00:15:30;7.15;;;6.15;;
55053;SDS011;40954;45.668;18.980;2023-08-24T00:17:56;10.38;;;7.20;;
55053;SDS011;40954;45.668;18.980;2023-08-24T00:20:22;9.48;;;5.85;;
55053;SDS011;40954;45.668;18.980;2023-08-24T00:22:48;10.27;;;7.05;;
55053;SDS011;40954;45.668;18.980;2023-08-24T00:25:14;6.95;;;5.93;;
55053;SDS011;40954;45.668;18.980;2023-08-24T00:27:40;8.43;;;7.28;;
55053;SDS011;40954;45.668;18.980;2023-08-24T00:30:06;11.27;;;7.40;;
55053;SDS011;40954;45.668;18.980;2023-08-24T00:32:33;11.43;;;7.88;;
55053;SDS011;40954;45.668;18.980;2023-08-24T00:35:02;12.80;;;6.82;;
55053;SDS011;40954;45.668;18.980;2023-08-24T00:37:30;11.23;;;6.68;;
55053;SDS011;40954;45.668;18.980;2023-08-24T00:39:57;12.10;;;7.72;;
55053;SDS011;40954;45.668;18.980;2023-08-24T00:42:30;12.00;;;7.90;;
55053;SDS011;40954;45.668;18.980;2023-08-24T00:44:57;6.90;;;6.30;;
55053;SDS011;40954;45.668;18.980;2023-08-24T00:47:23;14.95;;;7.68;;
55053;SDS011;40954;45.668;18.980;2023-08-24T00:49:50;12.77;;;8.05;;
55053;SDS011;40954;45.668;18.980;2023-08-24T00:52:16;10.25;;;7.45;;
55053;SDS011;40954;45.668;18.980;2023-08-24T00:54:42;8.68;;;7.80;;
55053;SDS011;40954;45.668;18.980;2023-08-24T00:57:08;8.68;;;7.78;;
55053;SDS011;40954;45.668;18.980;2023-08-24T00:59:34;10.38;;;7.65;;
55053;SDS011;40954;45.668;18.980;2023-08-24T01:02:00;8.20;;;7.40;;
55053;SDS011;40954;45.668;18.980;2023-08-24T01:04:27;10.82;;;7.50;;
55053;SDS011;40954;45.668;18.980;2023-08-24T01:06:53;10.27;;;8.00;;
55053;SDS011;40954;45.668;18.980;2023-08-24T01:09:19;10.60;;;7.00;;
55053;SDS011;40954;45.668;18.980;2023-08-24T01:17:41;7.63;;;7.03;;
55053;SDS011;40954;45.668;18.980;2023-08-24T01:20:08;8.13;;;6.75;;
55053;SDS011;40954;45.668;18.980;2023-08-24T01:25:34;10.55;;;7.85;;
55053;SDS011;40954;45.668;18.980;2023-08-24T01:28:05;8.15;;;7.32;;
55053;SDS011;40954;45.668;18.980;2023-08-24T01:30:33;10.38;;;8.20;;
55053;SDS011;40954;45.668;18.980;2023-08-24T01:33:02;12.20;;;8.70;;
55053;SDS011;40954;45.668;18.980;2023-08-24T01:35:29;9.98;;;7.50;;
55053;SDS011;40954;45.668;18.980;2023-08-24T01:37:57;8.88;;;7.40;;
55053;SDS011;40954;45.668;18.980;2023-08-24T01:40:32;9.90;;;7.20;;
55053;SDS011;40954;45.668;18.980;2023-08-24T01:43:07;10.20;;;7.22;;
55053;SDS011;40954;45.668;18.980;2023-08-24T01:45:34;7.00;;;6.35;;
55053;SDS011;40954;45.668;18.980;2023-08-24T01:48:01;7.88;;;7.07;;
55053;SDS011;40954;45.668;18.980;2023-08-24T01:50:28;9.32;;;7.72;;
55053;SDS011;40954;45.668;18.980;2023-08-24T01:52:55;9.20;;;7.30;;
55053;SDS011;40954;45.668;18.980;2023-08-24T01:55:21;11.50;;;7.05;;
55053;SDS011;40954;45.668;18.980;2023-08-24T01:57:48;9.27;;;7.55;;
55053;SDS011;40954;45.668;18.980;2023-08-24T02:00:14;8.68;;;7.78;;
55053;SDS011;40954;45.668;18.980;2023-08-24T02:02:41;7.25;;;6.65;;
55053;SDS011;40954;45.668;18.980;2023-08-24T02:05:09;11.32;;;7.63;;
55053;SDS011;40954;45.668;18.980;2023-08-24T02:07:34;8.68;;;7.53;;
55053;SDS011;40954;45.668;18.980;2023-08-24T02:10:01;9.18;;;7.60;;
55053;SDS011;40954;45.668;18.980;2023-08-24T02:12:26;8.45;;;6.80;;
55053;SDS011;40954;45.668;18.980;2023-08-24T02:14:52;8.77;;;7.30;;
55053;SDS011;40954;45.668;18.980;2023-08-24T02:17:18;8.15;;;7.30;;
55053;SDS011;40954;45.668;18.980;2023-08-24T02:19:44;10.15;;;7.10;;
55053;SDS011;40954;45.668;18.980;2023-08-24T02:22:09;8.82;;;7.00;;
55053;SDS011;40954;45.668;18.980;2023-08-24T02:24:35;13.13;;;7.80;;
55053;SDS011;40954;45.668;18.980;2023-08-24T02:27:01;13.07;;;7.93;;
55053;SDS011;40954;45.668;18.980;2023-08-24T02:29:27;9.77;;;7.72;;
55053;SDS011;40954;45.668;18.980;2023-08-24T02:31:53;10.80;;;8.90;;
55053;SDS011;40954;45.668;18.980;2023-08-24T02:34:19;10.18;;;8.57;;
55053;SDS011;40954;45.668;18.980;2023-08-24T02:36:45;8.93;;;8.02;;
55053;SDS011;40954;45.668;18.980;2023-08-24T02:39:10;9.43;;;7.22;;
55053;SDS011;40954;45.668;18.980;2023-08-24T02:41:36;11.93;;;8.15;;
55053;SDS011;40954;45.668;18.980;2023-08-24T02:44:02;9.40;;;8.05;;
55053;SDS011;40954;45.668;18.980;2023-08-24T02:46:28;8.95;;;7.93;;
55053;SDS011;40954;45.668;18.980;2023-08-24T02:48:54;12.40;;;8.85;;
55053;SDS011;40954;45.668;18.980;2023-08-24T02:51:23;8.95;;;7.95;;
55053;SDS011;40954;45.668;18.980;2023-08-24T02:53:49;10.60;;;8.43;;
55053;SDS011;40954;45.668;18.980;2023-08-24T02:56:15;12.15;;;8.40;;
55053;SDS011;40954;45.668;18.980;2023-08-24T02:58:41;13.88;;;9.00;;
55053;SDS011;40954;45.668;18.980;2023-08-24T03:01:07;10.45;;;8.32;;
55053;SDS011;40954;45.668;18.980;2023-08-24T03:03:36;11.80;;;8.13;;
55053;SDS011;40954;45.668;18.980;2023-08-24T03:06:03;13.43;;;8.63;;
55053;SDS011;40954;45.668;18.980;2023-08-24T03:08:31;11.43;;;8.52;;
55053;SDS011;40954;45.668;18.980;2023-08-24T03:10:57;12.55;;;9.13;;
55053;SDS011;40954;45.668;18.980;2023-08-24T03:13:24;13.32;;;8.93;;
55053;SDS011;40954;45.668;18.980;2023-08-24T03:15:50;11.30;;;8.80;;
55053;SDS011;40954;45.668;18.980;2023-08-24T03:18:17;10.80;;;8.90;;
55053;SDS011;40954;45.668;18.980;2023-08-24T03:20:43;10.13;;;9.13;;
55053;SDS011;40954;45.668;18.980;2023-08-24T03:23:11;15.77;;;9.68;;
55053;SDS011;40954;45.668;18.980;2023-08-24T03:25:37;19.05;;;10.40;;
55053;SDS011;40954;45.668;18.980;2023-08-24T03:28:04;15.63;;;9.40;;
55053;SDS011;40954;45.668;18.980;2023-08-24T03:30:32;8.32;;;7.53;;
55053;SDS011;40954;45.668;18.980;2023-08-24T03:32:59;14.55;;;10.35;;
55053;SDS011;40954;45.668;18.980;2023-08-24T03:35:24;11.60;;;10.40;;
55053;SDS011;40954;45.668;18.980;2023-08-24T03:37:50;9.57;;;8.57;;
55053;SDS011;40954;45.668;18.980;2023-08-24T03:40:16;10.75;;;9.68;;
55053;SDS011;40954;45.668;18.980;2023-08-24T03:42:42;10.88;;;9.70;;
55053;SDS011;40954;45.668;18.980;2023-08-24T03:45:08;12.57;;;9.70;;
55053;SDS011;40954;45.668;18.980;2023-08-24T03:47:34;11.43;;;9.18;;
55053;SDS011;40954;45.668;18.980;2023-08-24T03:50:00;9.85;;;8.85;;
55053;SDS011;40954;45.668;18.980;2023-08-24T03:52:25;11.55;;;9.52;;
55053;SDS011;40954;45.668;18.980;2023-08-24T03:54:52;13.95;;;10.05;;
55053;SDS011;40954;45.668;18.980;2023-08-24T03:57:17;9.48;;;8.57;;
55053;SDS011;40954;45.668;18.980;2023-08-24T03:59:43;12.75;;;9.65;;
55053;SDS011;40954;45.668;18.980;2023-08-24T04:02:09;11.15;;;9.40;;
55053;SDS011;40954;45.668;18.980;2023-08-24T04:04:34;11.65;;;9.57;;
55053;SDS011;40954;45.668;18.980;2023-08-24T04:07:00;14.30;;;10.52;;
55053;SDS011;40954;45.668;18.980;2023-08-24T04:09:27;11.73;;;10.02;;
55053;SDS011;40954;45.668;18.980;2023-08-24T04:11:53;14.93;;;10.85;;
55053;SDS011;40954;45.668;18.980;2023-08-24T04:14:19;11.43;;;10.35;;
55053;SDS011;40954;45.668;18.980;2023-08-24T04:16:45;15.13;;;10.65;;
55053;SDS011;40954;45.668;18.980;2023-08-24T04:19:11;10.63;;;9.00;;
55053;SDS011;40954;45.668;18.980;2023-08-24T04:21:36;12.80;;;10.07;;
55053;SDS011;40954;45.668;18.980;2023-08-24T04:24:02;12.68;;;11.00;;
55053;SDS011;40954;45.668;18.980;2023-08-24T04:26:28;16.25;;;10.13;;
55053;SDS011;40954;45.668;18.980;2023-08-24T04:28:54;12.07;;;10.18;;
55053;SDS011;40954;45.668;18.980;2023-08-24T04:31:19;10.43;;;9.05;;
55053;SDS011;40954;45.668;18.980;2023-08-24T04:33:45;11.65;;;10.00;;
55053;SDS011;40954;45.668;18.980;2023-08-24T04:36:11;12.73;;;10.13;;
55053;SDS011;40954;45.668;18.980;2023-08-24T04:38:36;12.88;;;10.23;;
55053;SDS011;40954;45.668;18.980;2023-08-24T04:41:02;9.38;;;8.60;;
55053;SDS011;40954;45.668;18.980;2023-08-24T04:43:32;10.52;;;9.48;;
55053;SDS011;40954;45.668;18.980;2023-08-24T04:45:58;9.77;;;8.82;;
55053;SDS011;40954;45.668;18.980;2023-08-24T04:48:24;11.00;;;8.93;;
55053;SDS011;40954;45.668;18.980;2023-08-24T04:50:51;11.35;;;9.15;;
55053;SDS011;40954;45.668;18.980;2023-08-24T04:53:21;9.52;;;8.63;;
55053;SDS011;40954;45.668;18.980;2023-08-24T04:55:47;9.73;;;8.75;;
55053;SDS011;40954;45.668;18.980;2023-08-24T04:58:12;12.38;;;8.88;;
55053;SDS011;40954;45.668;18.980;2023-08-24T05:00:39;9.80;;;8.90;;
55053;SDS011;40954;45.668;18.980;2023-08-24T05:03:05;11.50;;;9.30;;
55053;SDS011;40954;45.668;18.980;2023-08-24T05:05:32;14.57;;;10.10;;
55053;SDS011;40954;45.668;18.980;2023-08-24T05:07:58;13.02;;;8.93;;
55053;SDS011;40954;45.668;18.980;2023-08-24T05:10:25;11.63;;;8.80;;
55053;SDS011;40954;45.668;18.980;2023-08-24T05:12:54;9.38;;;8.48;;
55053;SDS011;40954;45.668;18.980;2023-08-24T05:15:20;11.60;;;9.05;;
55053;SDS011;40954;45.668;18.980;2023-08-24T05:17:46;13.20;;;9.73;;
55053;SDS011;40954;45.668;18.980;2023-08-24T05:20:11;14.48;;;9.38;;
55053;SDS011;40954;45.668;18.980;2023-08-24T05:22:37;10.02;;;9.10;;
55053;SDS011;40954;45.668;18.980;2023-08-24T05:25:03;10.93;;;9.82;;
55053;SDS011;40954;45.668;18.980;2023-08-24T05:27:30;10.95;;;9.52;;
55053;SDS011;40954;45.668;18.980;2023-08-24T05:29:56;9.38;;;8.18;;
55053;SDS011;40954;45.668;18.980;2023-08-24T05:32:21;10.15;;;9.23;;
55053;SDS011;40954;45.668;18.980;2023-08-24T05:34:47;12.02;;;9.43;;
55053;SDS011;40954;45.668;18.980;2023-08-24T05:37:13;11.13;;;10.13;;
55053;SDS011;40954;45.668;18.980;2023-08-24T05:39:39;11.63;;;8.52;;
55053;SDS011;40954;45.668;18.980;2023-08-24T05:42:05;10.77;;;9.48;;
55053;SDS011;40954;45.668;18.980;2023-08-24T05:44:30;12.18;;;9.50;;
55053;SDS011;40954;45.668;18.980;2023-08-24T05:46:56;16.05;;;9.63;;
55053;SDS011;40954;45.668;18.980;2023-08-24T05:49:22;13.95;;;9.77;;
55053;SDS011;40954;45.668;18.980;2023-08-24T05:51:51;13.68;;;9.40;;
55053;SDS011;40954;45.668;18.980;2023-08-24T05:54:17;10.48;;;9.45;;
55053;SDS011;40954;45.668;18.980;2023-08-24T05:56:44;11.15;;;10.13;;
55053;SDS011;40954;45.668;18.980;2023-08-24T05:59:10;12.57;;;10.02;;
55053;SDS011;40954;45.668;18.980;2023-08-24T06:01:36;15.80;;;10.75;;
55053;SDS011;40954;45.668;18.980;2023-08-24T06:04:07;18.95;;;11.40;;
55053;SDS011;40954;45.668;18.980;2023-08-24T06:06:33;15.93;;;9.63;;
55053;SDS011;40954;45.668;18.980;2023-08-24T06:08:59;12.98;;;10.95;;
55053;SDS011;40954;45.668;18.980;2023-08-24T06:11:25;10.38;;;9.38;;
55053;SDS011;40954;45.668;18.980;2023-08-24T06:13:50;15.57;;;11.75;;
55053;SDS011;40954;45.668;18.980;2023-08-24T06:16:18;13.45;;;12.07;;
55053;SDS011;40954;45.668;18.980;2023-08-24T06:18:44;13.85;;;10.95;;
55053;SDS011;40954;45.668;18.980;2023-08-24T06:21:11;11.02;;;9.57;;
55053;SDS011;40954;45.668;18.980;2023-08-24T06:23:36;14.80;;;12.85;;
55053;SDS011;40954;45.668;18.980;2023-08-24T06:26:08;13.85;;;11.52;;
55053;SDS011;40954;45.668;18.980;2023-08-24T06:28:33;16.73;;;12.88;;
55053;SDS011;40954;45.668;18.980;2023-08-24T06:30:59;14.43;;;12.93;;
55053;SDS011;40954;45.668;18.980;2023-08-24T06:33:29;13.50;;;11.80;;
55053;SDS011;40954;45.668;18.980;2023-08-24T06:36:02;13.18;;;11.75;;
55053;SDS011;40954;45.668;18.980;2023-08-24T06:38:31;15.20;;;11.57;;
55053;SDS011;40954;45.668;18.980;2023-08-24T06:40:57;16.55;;;12.40;;
55053;SDS011;40954;45.668;18.980;2023-08-24T06:43:23;10.27;;;9.18;;
55053;SDS011;40954;45.668;18.980;2023-08-24T06:45:50;13.75;;;11.45;;
55053;SDS011;40954;45.668;18.980;2023-08-24T06:48:16;13.82;;;11.60;;
55053;SDS011;40954;45.668;18.980;2023-08-24T06:50:43;12.63;;;11.02;;
55053;SDS011;40954;45.668;18.980;2023-08-24T06:53:08;12.65;;;11.32;;
55053;SDS011;40954;45.668;18.980;2023-08-24T06:55:34;13.73;;;10.45;;
55053;SDS011;40954;45.668;18.980;2023-08-24T06:58:01;15.02;;;9.55;;
55053;SDS011;40954;45.668;18.980;2023-08-24T07:00:30;12.18;;;9.82;;
55053;SDS011;40954;45.668;18.980;2023-08-24T07:02:56;14.35;;;10.45;;
55053;SDS011;40954;45.668;18.980;2023-08-24T07:05:22;14.68;;;10.25;;
55053;SDS011;40954;45.668;18.980;2023-08-24T07:07:51;16.00;;;10.98;;
55053;SDS011;40954;45.668;18.980;2023-08-24T07:10:17;11.50;;;10.30;;
55053;SDS011;40954;45.668;18.980;2023-08-24T07:12:43;10.13;;;9.15;;
55053;SDS011;40954;45.668;18.980;2023-08-24T07:15:10;12.38;;;10.35;;
55053;SDS011;40954;45.668;18.980;2023-08-24T07:17:37;13.68;;;10.73;;
55053;SDS011;40954;45.668;18.980;2023-08-24T07:20:03;11.75;;;10.23;;
55053;SDS011;40954;45.668;18.980;2023-08-24T07:22:39;13.38;;;11.10;;
55053;SDS011;40954;45.668;18.980;2023-08-24T07:25:05;11.77;;;10.40;;
55053;SDS011;40954;45.668;18.980;2023-08-24T07:27:32;12.05;;;10.88;;
55053;SDS011;40954;45.668;18.980;2023-08-24T07:29:58;12.70;;;10.40;;
55053;SDS011;40954;45.668;18.980;2023-08-24T07:32:25;12.18;;;9.50;;
55053;SDS011;40954;45.668;18.980;2023-08-24T07:34:51;12.15;;;10.70;;
55053;SDS011;40954;45.668;18.980;2023-08-24T07:37:17;15.25;;;9.98;;
55053;SDS011;40954;45.668;18.980;2023-08-24T07:39:43;12.32;;;10.32;;
55053;SDS011;40954;45.668;18.980;2023-08-24T07:42:09;11.32;;;10.30;;
55053;SDS011;40954;45.668;18.980;2023-08-24T07:44:35;12.15;;;9.55;;
55053;SDS011;40954;45.668;18.980;2023-08-24T07:47:01;13.82;;;10.70;;
55053;SDS011;40954;45.668;18.980;2023-08-24T07:49:26;14.13;;;10.68;;
55053;SDS011;40954;45.668;18.980;2023-08-24T07:51:52;10.50;;;9.35;;
55053;SDS011;40954;45.668;18.980;2023-08-24T07:54:18;13.70;;;9.45;;
55053;SDS011;40954;45.668;18.980;2023-08-24T07:56:45;12.27;;;10.43;;
55053;SDS011;40954;45.668;18.980;2023-08-24T07:59:11;12.95;;;10.60;;
55053;SDS011;40954;45.668;18.980;2023-08-24T08:01:36;14.45;;;9.80;;
55053;SDS011;40954;45.668;18.980;2023-08-24T08:04:02;16.48;;;11.50;;
55053;SDS011;40954;45.668;18.980;2023-08-24T08:06:28;10.55;;;9.43;;
55053;SDS011;40954;45.668;18.980;2023-08-24T08:08:54;13.25;;;9.73;;
55053;SDS011;40954;45.668;18.980;2023-08-24T08:11:21;12.43;;;10.38;;
55053;SDS011;40954;45.668;18.980;2023-08-24T08:13:47;10.52;;;9.63;;
55053;SDS011;40954;45.668;18.980;2023-08-24T08:16:13;11.13;;;9.73;;
55053;SDS011;40954;45.668;18.980;2023-08-24T08:18:39;10.00;;;9.18;;
55053;SDS011;40954;45.668;18.980;2023-08-24T08:21:08;11.77;;;10.60;;
55053;SDS011;40954;45.668;18.980;2023-08-24T08:23:36;10.60;;;9.57;;
55053;SDS011;40954;45.668;18.980;2023-08-24T08:26:01;11.93;;;9.60;;
55053;SDS011;40954;45.668;18.980;2023-08-24T08:28:28;13.55;;;9.85;;
55053;SDS011;40954;45.668;18.980;2023-08-24T08:30:54;10.88;;;9.02;;
55053;SDS011;40954;45.668;18.980;2023-08-24T08:33:20;9.98;;;8.60;;
55053;SDS011;40954;45.668;18.980;2023-08-24T08:35:47;24.33;;;9.98;;
55053;SDS011;40954;45.668;18.980;2023-08-24T08:38:12;9.60;;;8.65;;
55053;SDS011;40954;45.668;18.980;2023-08-24T08:40:38;9.88;;;8.65;;
55053;SDS011;40954;45.668;18.980;2023-08-24T08:43:06;10.43;;;8.75;;
55053;SDS011;40954;45.668;18.980;2023-08-24T08:45:32;11.43;;;8.45;;
55053;SDS011;40954;45.668;18.980;2023-08-24T08:48:02;9.35;;;8.45;;
55053;SDS011;40954;45.668;18.980;2023-08-24T08:50:29;10.43;;;7.80;;
55053;SDS011;40954;45.668;18.980;2023-08-24T08:52:57;9.82;;;8.93;;
55053;SDS011;40954;45.668;18.980;2023-08-24T08:55:23;9.00;;;8.10;;
55053;SDS011;40954;45.668;18.980;2023-08-24T08:57:51;10.55;;;8.75;;
55053;SDS011;40954;45.668;18.980;2023-08-24T09:00:19;9.73;;;8.73;;
55053;SDS011;40954;45.668;18.980;2023-08-24T09:02:46;8.90;;;8.07;;
55053;SDS011;40954;45.668;18.980;2023-08-24T09:05:15;9.52;;;7.97;;
55053;SDS011;40954;45.668;18.980;2023-08-24T09:07:41;9.18;;;8.05;;
55053;SDS011;40954;45.668;18.980;2023-08-24T09:10:07;9.13;;;8.20;;
55053;SDS011;40954;45.668;18.980;2023-08-24T09:12:33;8.27;;;7.47;;
55053;SDS011;40954;45.668;18.980;2023-08-24T09:15:00;10.00;;;9.00;;
55053;SDS011;40954;45.668;18.980;2023-08-24T09:22:22;8.63;;;7.25;;
55053;SDS011;40954;45.668;18.980;2023-08-24T09:24:48;8.02;;;7.40;;
55053;SDS011;40954;45.668;18.980;2023-08-24T09:27:19;7.18;;;6.43;;
55053;SDS011;40954;45.668;18.980;2023-08-24T09:32:21;8.93;;;6.88;;
55053;SDS011;40954;45.668;18.980;2023-08-24T09:34:48;7.45;;;6.75;;
55053;SDS011;40954;45.668;18.980;2023-08-24T09:37:15;7.72;;;6.63;;
55053;SDS011;40954;45.668;18.980;2023-08-24T09:39:41;8.07;;;6.93;;
55053;SDS011;40954;45.668;18.980;2023-08-24T09:42:07;6.82;;;6.20;;
55053;SDS011;40954;45.668;18.980;2023-08-24T09:44:33;7.30;;;6.60;;
55053;SDS011;40954;45.668;18.980;2023-08-24T09:46:59;6.90;;;6.30;;
55053;SDS011;40954;45.668;18.980;2023-08-24T09:49:25;7.40;;;6.80;;
55053;SDS011;40954;45.668;18.980;2023-08-24T09:51:51;7.22;;;6.63;;
55053;SDS011;40954;45.668;18.980;2023-08-24T09:54:21;7.95;;;6.25;;
55053;SDS011;40954;45.668;18.980;2023-08-24T09:56:53;6.28;;;5.78;;
55053;SDS011;40954;45.668;18.980;2023-08-24T09:59:23;7.15;;;6.45;;
55053;SDS011;40954;45.668;18.980;2023-08-24T10:01:52;6.72;;;5.88;;
55053;SDS011;40954;45.668;18.980;2023-08-24T10:04:22;7.07;;;6.30;;
55053;SDS011;40954;45.668;18.980;2023-08-24T10:06:49;6.82;;;6.22;;
55053;SDS011;40954;45.668;18.980;2023-08-24T10:09:26;6.97;;;6.25;;
55053;SDS011;40954;45.668;18.980;2023-08-24T10:11:58;7.22;;;6.07;;
55053;SDS011;40954;45.668;18.980;2023-08-24T10:17:03;8.32;;;6.50;;
55053;SDS011;40954;45.668;18.980;2023-08-24T10:19:29;5.70;;;5.18;;
55053;SDS011;40954;45.668;18.980;2023-08-24T10:21:56;5.78;;;5.28;;
55053;SDS011;40954;45.668;18.980;2023-08-24T10:24:25;6.43;;;5.93;;
55053;SDS011;40954;45.668;18.980;2023-08-24T10:26:52;5.78;;;4.93;;
55053;SDS011;40954;45.668;18.980;2023-08-24T10:29:19;6.00;;;5.10;;
55053;SDS011;40954;45.668;18.980;2023-08-24T10:31:46;6.82;;;5.10;;
55053;SDS011;40954;45.668;18.980;2023-08-24T10:34:13;6.72;;;6.10;;
55053;SDS011;40954;45.668;18.980;2023-08-24T10:36:39;9.23;;;5.47;;
55053;SDS011;40954;45.668;18.980;2023-08-24T10:39:05;5.43;;;5.03;;
55053;SDS011;40954;45.668;18.980;2023-08-24T10:41:50;6.43;;;5.10;;
55053;SDS011;40954;45.668;18.980;2023-08-24T10:44:35;11.40;;;5.20;;
55053;SDS011;40954;45.668;18.980;2023-08-24T10:50:04;6.25;;;4.43;;
55053;SDS011;40954;45.668;18.980;2023-08-24T10:55:03;6.23;;;5.30;;
55053;SDS011;40954;45.668;18.980;2023-08-24T10:57:37;14.32;;;6.85;;
55053;SDS011;40954;45.668;18.980;2023-08-24T11:00:10;6.53;;;4.97;;
55053;SDS011;40954;45.668;18.980;2023-08-24T11:02:49;8.77;;;4.80;;
55053;SDS011;40954;45.668;18.980;2023-08-24T11:07:50;5.80;;;5.25;;
55053;SDS011;40954;45.668;18.980;2023-08-24T11:10:17;8.73;;;4.60;;
55053;SDS011;40954;45.668;18.980;2023-08-24T11:15:37;5.30;;;4.40;;
55053;SDS011;40954;45.668;18.980;2023-08-24T11:21:01;6.65;;;4.50;;
55053;SDS011;40954;45.668;18.980;2023-08-24T11:23:28;6.65;;;5.00;;
55053;SDS011;40954;45.668;18.980;2023-08-24T11:25:55;7.82;;;5.28;;
55053;SDS011;40954;45.668;18.980;2023-08-24T11:28:23;5.75;;;4.43;;
55053;SDS011;40954;45.668;18.980;2023-08-24T11:30:51;6.38;;;5.13;;
55053;SDS011;40954;45.668;18.980;2023-08-24T11:33:26;5.65;;;5.25;;
55053;SDS011;40954;45.668;18.980;2023-08-24T11:35:53;9.45;;;4.82;;
55053;SDS011;40954;45.668;18.980;2023-08-24T11:38:20;7.22;;;4.57;;
55053;SDS011;40954;45.668;18.980;2023-08-24T11:40:45;5.25;;;4.75;;
55053;SDS011;40954;45.668;18.980;2023-08-24T11:43:11;9.05;;;5.15;;
55053;SDS011;40954;45.668;18.980;2023-08-24T11:45:37;5.15;;;4.65;;
55053;SDS011;40954;45.668;18.980;2023-08-24T11:48:05;7.07;;;3.92;;
55053;SDS011;40954;45.668;18.980;2023-08-24T11:50:32;4.15;;;3.75;;
55053;SDS011;40954;45.668;18.980;2023-08-24T11:53:01;5.45;;;4.85;;
55053;SDS011;40954;45.668;18.980;2023-08-24T11:55:27;5.13;;;3.88;;
55053;SDS011;40954;45.668;18.980;2023-08-24T11:57:54;6.40;;;4.47;;
55053;SDS011;40954;45.668;18.980;2023-08-24T12:00:20;4.00;;;3.67;;
55053;SDS011;40954;45.668;18.980;2023-08-24T12:02:47;7.70;;;4.47;;
55053;SDS011;40954;45.668;18.980;2023-08-24T12:05:20;4.72;;;4.30;;
55053;SDS011;40954;45.668;18.980;2023-08-24T12:07:50;5.07;;;4.43;;
55053;SDS011;40954;45.668;18.980;2023-08-24T12:10:17;4.22;;;3.83;;
55053;SDS011;40954;45.668;18.980;2023-08-24T12:12:43;3.83;;;3.63;;
55053;SDS011;40954;45.668;18.980;2023-08-24T12:15:14;5.70;;;4.50;;
55053;SDS011;40954;45.668;18.980;2023-08-24T12:17:42;3.38;;;3.17;;
55053;SDS011;40954;45.668;18.980;2023-08-24T12:20:15;3.83;;;3.53;;
55053;SDS011;40954;45.668;18.980;2023-08-24T12:22:50;5.43;;;4.93;;
55053;SDS011;40954;45.668;18.980;2023-08-24T12:25:22;7.00;;;4.07;;
55053;SDS011;40954;45.668;18.980;2023-08-24T12:27:50;4.57;;;4.03;;
55053;SDS011;40954;45.668;18.980;2023-08-24T12:30:42;4.45;;;4.15;;
55053;SDS011;40954;45.668;18.980;2023-08-24T12:33:09;4.72;;;4.32;;
55053;SDS011;40954;45.668;18.980;2023-08-24T12:35:45;4.88;;;4.47;;
55053;SDS011;40954;45.668;18.980;2023-08-24T12:38:11;3.83;;;3.53;;
55053;SDS011;40954;45.668;18.980;2023-08-24T12:40:37;5.32;;;3.85;;
55053;SDS011;40954;45.668;18.980;2023-08-24T12:43:02;4.35;;;3.72;;
55053;SDS011;40954;45.668;18.980;2023-08-24T12:45:28;4.53;;;4.13;;
55053;SDS011;40954;45.668;18.980;2023-08-24T12:47:54;5.60;;;3.80;;
55053;SDS011;40954;45.668;18.980;2023-08-24T12:50:20;4.78;;;3.78;;
55053;SDS011;40954;45.668;18.980;2023-08-24T12:52:45;4.55;;;4.00;;
55053;SDS011;40954;45.668;18.980;2023-08-24T12:55:11;8.15;;;3.97;;
55053;SDS011;40954;45.668;18.980;2023-08-24T12:57:37;4.63;;;4.00;;
55053;SDS011;40954;45.668;18.980;2023-08-24T13:00:02;5.32;;;3.60;;
55053;SDS011;40954;45.668;18.980;2023-08-24T13:02:28;5.90;;;4.28;;
55053;SDS011;40954;45.668;18.980;2023-08-24T13:04:54;6.45;;;4.25;;
55053;SDS011;40954;45.668;18.980;2023-08-24T13:07:20;4.93;;;3.33;;
55053;SDS011;40954;45.668;18.980;2023-08-24T13:09:46;4.28;;;3.85;;
55053;SDS011;40954;45.668;18.980;2023-08-24T13:12:11;11.23;;;4.40;;
55053;SDS011;40954;45.668;18.980;2023-08-24T13:14:37;4.57;;;4.13;;
55053;SDS011;40954;45.668;18.980;2023-08-24T13:17:03;4.55;;;4.13;;
55053;SDS011;40954;45.668;18.980;2023-08-24T13:19:29;6.00;;;4.10;;
55053;SDS011;40954;45.668;18.980;2023-08-24T13:21:54;9.50;;;4.35;;
55053;SDS011;40954;45.668;18.980;2023-08-24T13:24:20;4.75;;;4.35;;
55053;SDS011;40954;45.668;18.980;2023-08-24T13:26:46;7.90;;;3.78;;
55053;SDS011;40954;45.668;18.980;2023-08-24T13:29:11;5.93;;;4.35;;
55053;SDS011;40954;45.668;18.980;2023-08-24T13:31:37;4.85;;;4.00;;
55053;SDS011;40954;45.668;18.980;2023-08-24T13:34:03;4.60;;;4.20;;
55053;SDS011;40954;45.668;18.980;2023-08-24T13:36:32;4.60;;;4.07;;
55053;SDS011;40954;45.668;18.980;2023-08-24T13:38:58;4.22;;;3.83;;
55053;SDS011;40954;45.668;18.980;2023-08-24T13:41:24;5.40;;;4.32;;
55053;SDS011;40954;45.668;18.980;2023-08-24T13:43:50;5.93;;;4.30;;
55053;SDS011;40954;45.668;18.980;2023-08-24T13:46:16;6.88;;;4.00;;
55053;SDS011;40954;45.668;18.980;2023-08-24T13:48:42;6.68;;;3.80;;
55053;SDS011;40954;45.668;18.980;2023-08-24T13:51:07;4.20;;;3.90;;
55053;SDS011;40954;45.668;18.980;2023-08-24T13:53:33;4.13;;;3.80;;
55053;SDS011;40954;45.668;18.980;2023-08-24T13:55:59;4.30;;;3.90;;
55053;SDS011;40954;45.668;18.980;2023-08-24T13:58:25;6.45;;;3.83;;
55053;SDS011;40954;45.668;18.980;2023-08-24T14:00:57;6.55;;;3.83;;
55053;SDS011;40954;45.668;18.980;2023-08-24T14:03:23;4.38;;;3.97;;
55053;SDS011;40954;45.668;18.980;2023-08-24T14:05:49;4.55;;;4.10;;
55053;SDS011;40954;45.668;18.980;2023-08-24T14:08:16;6.57;;;3.97;;
55053;SDS011;40954;45.668;18.980;2023-08-24T14:10:42;5.15;;;3.88;;
55053;SDS011;40954;45.668;18.980;2023-08-24T14:13:07;6.47;;;4.07;;
55053;SDS011;40954;45.668;18.980;2023-08-24T14:15:33;5.20;;;4.13;;
55053;SDS011;40954;45.668;18.980;2023-08-24T14:18:00;4.28;;;3.80;;
55053;SDS011;40954;45.668;18.980;2023-08-24T14:20:25;8.63;;;3.78;;
55053;SDS011;40954;45.668;18.980;2023-08-24T14:22:52;5.63;;;4.05;;
55053;SDS011;40954;45.668;18.980;2023-08-24T14:25:18;4.60;;;3.97;;
55053;SDS011;40954;45.668;18.980;2023-08-24T14:27:44;6.78;;;4.68;;
55053;SDS011;40954;45.668;18.980;2023-08-24T14:30:09;5.03;;;3.88;;
55053;SDS011;40954;45.668;18.980;2023-08-24T14:32:36;5.43;;;3.55;;
55053;SDS011;40954;45.668;18.980;2023-08-24T14:35:01;4.25;;;3.95;;
55053;SDS011;40954;45.668;18.980;2023-08-24T14:37:29;5.00;;;4.55;;
55053;SDS011;40954;45.668;18.980;2023-08-24T14:39:55;6.10;;;4.22;;
55053;SDS011;40954;45.668;18.980;2023-08-24T14:42:21;7.25;;;4.30;;
55053;SDS011;40954;45.668;18.980;2023-08-24T14:44:46;10.27;;;4.10;;
55053;SDS011;40954;45.668;18.980;2023-08-24T14:47:12;4.07;;;3.60;;
55053;SDS011;40954;45.668;18.980;2023-08-24T14:49:38;6.03;;;3.88;;
55053;SDS011;40954;45.668;18.980;2023-08-24T14:52:04;6.85;;;4.30;;
55053;SDS011;40954;45.668;18.980;2023-08-24T14:54:29;6.43;;;4.05;;
55053;SDS011;40954;45.668;18.980;2023-08-24T14:56:55;6.22;;;4.47;;